Time;durP1;ratioP1;P1;durP2;ratioP2;P2;SDS_P1;SDS_P2;PMS_P1;PMS_P2;Temp;Humidity;BMP_temperature;BMP_pressure;BME280_temperature;BME280_humidity;BME280_pressure;Samples;Min_cycle;Max_cycle;Signal;HPM_P1;HPM_P2
2023/03/28 00:01:11;;;;;;;7.65;1.33;;;1.10;99.90;;;;;;5037140;28;25061;-73
2023/03/28 00:03:39;;;;;;;13.50;1.40;;;1.10;99.90;;;;;;5036042;28;25057;-73
2023/03/28 00:06:09;;;;;;;6.72;1.30;;;1.10;99.90;;;;;;5036829;28;25069;-73
2023/03/28 00:08:38;;;;;;;10.50;1.00;;;1.10;99.90;;;;;;5035572;28;25123;-73
2023/03/28 00:11:20;;;;;;;10.38;1.45;;;1.10;99.90;;;;;;5037441;28;25086;-72
2023/03/28 00:14:02;;;;;;;10.02;1.23;;;1.10;99.90;;;;;;5036939;28;25069;-73
2023/03/28 00:16:32;;;;;;;17.20;2.90;;;1.20;99.90;;;;;;5036965;28;25098;-73
2023/03/28 00:19:01;;;;;;;7.65;1.73;;;1.20;99.90;;;;;;5035486;28;25056;-73
2023/03/28 00:21:31;;;;;;;17.83;1.80;;;1.30;99.90;;;;;;5035727;28;25080;-72
2023/03/28 00:24:01;;;;;;;13.13;1.23;;;1.30;99.90;;;;;;5036748;28;25067;-73
2023/03/28 00:26:31;;;;;;;7.78;1.25;;;1.30;99.90;;;;;;5035657;28;25113;-72
2023/03/28 00:29:00;;;;;;;7.70;2.03;;;1.40;99.90;;;;;;5037545;28;25119;-73
2023/03/28 00:31:28;;;;;;;8.05;1.55;;;1.40;99.90;;;;;;5035430;28;25085;-72
2023/03/28 00:33:56;;;;;;;7.57;1.75;;;1.30;99.90;;;;;;5035247;28;25100;-72
2023/03/28 00:36:31;;;;;;;11.32;1.83;;;1.30;99.90;;;;;;5036915;28;25058;-72
2023/03/28 00:39:04;;;;;;;12.10;1.20;;;1.20;99.90;;;;;;5035020;28;25114;-72
2023/03/28 00:41:35;;;;;;;5.60;0.98;;;1.20;99.90;;;;;;5037208;28;25059;-72
2023/03/28 00:44:41;;;;;;;17.58;1.30;;;1.10;99.90;;;;;;5048560;28;25057;-72
2023/03/28 00:47:35;;;;;;;6.75;1.10;;;1.10;99.90;;;;;;5056431;28;25082;-72
2023/03/28 00:50:23;;;;;;;7.38;2.17;;;1.10;99.90;;;;;;5056048;28;25075;-72
2023/03/28 00:53:14;;;;;;;5.22;1.60;;;1.10;99.90;;;;;;5038360;28;25070;-72
2023/03/28 00:55:51;;;;;;;7.63;0.90;;;1.10;99.90;;;;;;5056406;28;25112;-72
2023/03/28 00:58:26;;;;;;;7.95;1.20;;;1.00;99.90;;;;;;5056047;28;25073;-72
2023/03/28 01:00:56;;;;;;;7.18;1.15;;;1.00;99.90;;;;;;5056523;28;25065;-72
2023/03/28 01:03:32;;;;;;;6.82;1.58;;;1.00;99.90;;;;;;5056481;28;25056;-72
2023/03/28 01:06:03;;;;;;;5.45;0.98;;;1.00;99.90;;;;;;5038216;28;25075;-72
2023/03/28 01:08:34;;;;;;;8.98;2.40;;;1.00;99.90;;;;;;5055841;28;25080;-72
2023/03/28 01:11:02;;;;;;;9.45;0.90;;;1.10;99.90;;;;;;5056185;28;25059;-72
2023/03/28 01:13:37;;;;;;;6.40;1.30;;;1.10;99.90;;;;;;5055923;28;25048;-72
2023/03/28 01:16:06;;;;;;;8.82;1.27;;;1.10;99.90;;;;;;5056124;28;25069;-72
2023/03/28 01:18:35;;;;;;;12.80;1.38;;;1.10;99.90;;;;;;5038369;28;25066;-72
2023/03/28 01:21:24;;;;;;;5.80;0.77;;;1.20;99.90;;;;;;5038236;28;25081;-72
2023/03/28 01:24:24;;;;;;;4.30;0.93;;;1.20;99.90;;;;;;5056063;28;25073;-72
2023/03/28 01:26:59;;;;;;;9.52;1.08;;;1.20;99.90;;;;;;5056226;28;25141;-72
2023/03/28 01:29:45;;;;;;;8.98;1.30;;;1.20;99.90;;;;;;5055766;28;25052;-72
2023/03/28 01:32:30;;;;;;;5.15;1.00;;;1.10;99.90;;;;;;5056033;28;25130;-72
2023/03/28 01:35:25;;;;;;;9.52;1.30;;;1.10;99.90;;;;;;5055994;28;25123;-72
2023/03/28 01:38:16;;;;;;;11.45;2.28;;;1.10;99.90;;;;;;5055892;28;25101;-72
2023/03/28 01:40:46;;;;;;;10.18;1.20;;;1.10;99.90;;;;;;5055692;28;25054;-72
2023/03/28 01:43:36;;;;;;;8.07;1.13;;;1.00;99.90;;;;;;5055686;28;25077;-72
2023/03/28 01:46:30;;;;;;;7.10;1.60;;;1.00;99.90;;;;;;5056303;28;25105;-72
2023/03/28 01:49:11;;;;;;;6.88;0.88;;;1.00;99.90;;;;;;5038320;28;25128;-72
2023/03/28 01:52:00;;;;;;;6.68;1.27;;;1.00;99.90;;;;;;5059202;28;25111;-72
2023/03/28 01:54:42;;;;;;;13.77;1.40;;;1.00;99.90;;;;;;5041467;28;25065;-72
2023/03/28 01:57:24;;;;;;;7.10;0.98;;;1.00;99.90;;;;;;5059216;28;25070;-72
2023/03/28 02:00:42;;;;;;;10.05;1.67;;;1.00;99.90;;;;;;5059598;28;25113;-72
2023/03/28 02:03:27;;;;;;;10.93;2.08;;;1.00;99.90;;;;;;5043581;28;25058;-72
2023/03/28 02:05:56;;;;;;;16.45;1.95;;;1.00;99.90;;;;;;5059711;28;25063;-72
2023/03/28 02:08:28;;;;;;;4.82;0.98;;;0.90;99.90;;;;;;5059135;28;25102;-72
2023/03/28 02:10:58;;;;;;;5.43;1.13;;;0.90;99.90;;;;;;5059166;28;25075;-72
2023/03/28 02:13:34;;;;;;;8.43;1.80;;;0.80;99.90;;;;;;5058818;28;25070;-71
2023/03/28 02:16:01;;;;;;;;;;;0.80;99.90;;;;;;5041465;28;25114;-72
2023/03/28 02:18:40;;;;;;;16.70;2.88;;;0.80;99.90;;;;;;5041018;28;25095;-71
2023/03/28 02:21:17;;;;;;;11.95;1.65;;;0.80;99.90;;;;;;5059118;28;25059;-72
2023/03/28 02:23:55;;;;;;;9.98;1.52;;;0.80;99.90;;;;;;5058561;28;25087;-72
2023/03/28 02:26:24;;;;;;;7.60;1.35;;;0.90;99.90;;;;;;5058640;28;25096;-72
2023/03/28 02:28:56;;;;;;;10.95;1.35;;;1.00;99.90;;;;;;5059067;28;25082;-71
2023/03/28 02:31:23;;;;;;;8.82;2.28;;;0.90;99.90;;;;;;5058667;28;25066;-72
2023/03/28 02:33:52;;;;;;;7.03;1.52;;;1.00;99.90;;;;;;5058874;28;25140;-72
2023/03/28 02:36:31;;;;;;;5.63;1.00;;;0.90;99.90;;;;;;5058413;28;25157;-72
2023/03/28 02:39:20;;;;;;;11.70;1.60;;;0.90;99.90;;;;;;5058609;28;25053;-72
2023/03/28 02:41:58;;;;;;;5.63;1.38;;;0.90;99.90;;;;;;5058617;28;25059;-72
2023/03/28 02:45:06;;;;;;;20.08;1.20;;;0.90;99.90;;;;;;5058053;28;25060;-72
2023/03/28 02:47:43;;;;;;;13.45;1.23;;;0.90;99.90;;;;;;5058167;28;25105;-72
2023/03/28 02:50:21;;;;;;;8.93;1.38;;;0.90;99.90;;;;;;5058851;28;25063;-72
2023/03/28 02:53:11;;;;;;;7.82;1.15;;;1.00;99.90;;;;;;5058530;28;25110;-72
2023/03/28 02:56:09;;;;;;;8.18;1.83;;;1.00;99.90;;;;;;5058595;28;25055;-72
2023/03/28 02:58:47;;;;;;;16.70;1.52;;;1.00;99.90;;;;;;5058242;28;25143;-72
2023/03/28 03:01:14;;;;;;;8.40;1.75;;;0.90;99.90;;;;;;5058354;28;25067;-72
2023/03/28 03:03:42;;;;;;;7.00;2.40;;;0.90;99.90;;;;;;5058306;28;25064;-72
2023/03/28 03:06:11;;;;;;;8.23;2.53;;;0.90;99.90;;;;;;5057835;28;25064;-72
2023/03/28 03:08:38;;;;;;;8.90;1.17;;;0.90;99.90;;;;;;5057939;28;25079;-72
2023/03/28 03:11:07;;;;;;;7.32;1.50;;;0.90;99.90;;;;;;5040209;28;25058;-72
2023/03/28 03:13:34;;;;;;;6.15;1.52;;;0.90;99.90;;;;;;5057688;28;25068;-72
2023/03/28 03:16:02;;;;;;;14.05;2.38;;;0.90;99.90;;;;;;5057572;28;25059;-72
2023/03/28 03:18:31;;;;;;;14.18;1.65;;;0.90;99.90;;;;;;5040254;28;25082;-72
2023/03/28 03:21:00;;;;;;;8.20;1.35;;;0.80;99.90;;;;;;5057708;28;25091;-72
2023/03/28 03:23:28;;;;;;;12.70;2.47;;;0.80;99.90;;;;;;5057297;28;25064;-72
2023/03/28 03:25:55;;;;;;;12.45;1.52;;;0.80;99.90;;;;;;5057472;28;25090;-72
2023/03/28 03:28:23;;;;;;;17.27;4.20;;;0.80;99.90;;;;;;5057916;28;25119;-72
2023/03/28 03:30:52;;;;;;;6.93;1.20;;;0.90;99.90;;;;;;5057521;28;25057;-72
2023/03/28 03:33:19;;;;;;;3.22;0.80;;;0.90;99.90;;;;;;5057290;28;25092;-70
2023/03/28 03:35:47;;;;;;;12.13;1.90;;;0.90;99.90;;;;;;5057289;28;25123;-72
2023/03/28 03:38:15;;;;;;;18.08;2.15;;;1.00;99.90;;;;;;5039424;28;25108;-71
2023/03/28 03:40:43;;;;;;;34.00;1.83;;;1.00;99.90;;;;;;5039635;28;25012;-72
2023/03/28 03:43:10;;;;;;;16.98;1.58;;;1.10;99.90;;;;;;5056773;28;25116;-72
2023/03/28 03:45:39;;;;;;;10.88;1.83;;;1.10;99.90;;;;;;5039403;28;25073;-71
2023/03/28 03:48:06;;;;;;;15.45;2.55;;;1.10;99.90;;;;;;5057055;28;25144;-71
2023/03/28 03:50:33;;;;;;;6.03;1.58;;;1.10;99.90;;;;;;5057219;28;25127;-72
2023/03/28 03:53:01;;;;;;;5.28;1.33;;;1.10;99.90;;;;;;5039167;28;25087;-71
2023/03/28 03:55:28;;;;;;;10.10;1.92;;;1.10;99.90;;;;;;5056939;28;25139;-72
2023/03/28 03:57:55;;;;;;;14.77;2.35;;;1.10;99.90;;;;;;5057128;28;25145;-72
2023/03/28 04:00:23;;;;;;;10.57;1.48;;;1.10;99.90;;;;;;5057007;28;25080;-72
2023/03/28 04:02:50;;;;;;;11.07;1.85;;;1.10;99.90;;;;;;5057238;28;25089;-71
2023/03/28 04:05:18;;;;;;;10.55;1.13;;;1.10;99.90;;;;;;5057006;28;25063;-72
2023/03/28 04:07:45;;;;;;;5.50;1.40;;;1.10;99.90;;;;;;5056643;28;25119;-71
2023/03/28 04:10:12;;;;;;;20.23;2.08;;;1.10;99.90;;;;;;5057093;28;25067;-71
2023/03/28 04:12:40;;;;;;;20.77;2.20;;;1.10;99.90;;;;;;5056502;28;25057;-71
2023/03/28 04:15:08;;;;;;;13.85;1.65;;;1.10;99.90;;;;;;5056574;28;25057;-72
2023/03/28 04:17:36;;;;;;;10.25;1.05;;;1.00;99.90;;;;;;5056571;28;25138;-72
2023/03/28 04:20:10;;;;;;;15.07;2.30;;;1.00;99.90;;;;;;5057025;28;25084;-71
2023/03/28 04:22:38;;;;;;;5.68;1.13;;;1.00;99.90;;;;;;5056316;28;25084;-72
2023/03/28 04:25:06;;;;;;;12.75;2.20;;;1.10;99.90;;;;;;5056579;28;25075;-71
2023/03/28 04:27:34;;;;;;;7.75;1.13;;;1.10;99.90;;;;;;5056632;28;25094;-71
2023/03/28 04:30:01;;;;;;;10.35;1.02;;;1.10;99.90;;;;;;5056348;28;25057;-72
2023/03/28 04:32:28;;;;;;;7.93;2.15;;;1.10;99.90;;;;;;5056345;28;25073;-71
2023/03/28 04:34:56;;;;;;;15.18;1.70;;;1.00;99.90;;;;;;5056589;28;25112;-72
2023/03/28 04:37:23;;;;;;;14.43;1.42;;;1.00;99.90;;;;;;5056370;28;25094;-72
2023/03/28 04:39:52;;;;;;;7.70;1.33;;;1.00;99.90;;;;;;5056222;28;25075;-71
2023/03/28 04:42:20;;;;;;;5.05;1.13;;;0.90;99.90;;;;;;5056090;28;25137;-72
2023/03/28 04:44:48;;;;;;;9.43;1.98;;;0.90;99.90;;;;;;5055822;28;25122;-72
2023/03/28 04:47:15;;;;;;;10.40;1.20;;;0.90;99.90;;;;;;5056322;28;25106;-72
2023/03/28 04:49:42;;;;;;;7.38;1.30;;;0.90;99.90;;;;;;5056111;28;25057;-72
2023/03/28 04:52:09;;;;;;;16.95;1.90;;;0.90;99.90;;;;;;5056097;28;25168;-72
2023/03/28 04:54:37;;;;;;;22.27;1.83;;;0.80;99.90;;;;;;5056106;28;25116;-71
2023/03/28 04:57:04;;;;;;;10.82;1.63;;;0.80;99.90;;;;;;5056832;28;25074;-71
2023/03/28 04:59:31;;;;;;;9.50;1.17;;;0.80;99.90;;;;;;5038357;28;25117;-71
2023/03/28 05:01:58;;;;;;;13.32;1.45;;;0.70;99.90;;;;;;5038340;28;25080;-71
2023/03/28 05:04:26;;;;;;;8.23;0.93;;;0.70;99.90;;;;;;5056001;28;25063;-71
2023/03/28 05:06:53;;;;;;;16.83;3.03;;;0.70;99.90;;;;;;5056164;28;25121;-71
2023/03/28 05:09:21;;;;;;;18.52;2.85;;;0.70;99.90;;;;;;5038243;28;25071;-72
2023/03/28 05:11:49;;;;;;;10.52;1.77;;;0.70;99.90;;;;;;5056193;28;25061;-72
2023/03/28 05:14:16;;;;;;;5.57;1.00;;;0.70;99.90;;;;;;5056462;28;25070;-72
2023/03/28 05:16:44;;;;;;;13.32;2.13;;;0.70;99.90;;;;;;5038375;28;25063;-72
2023/03/28 05:19:12;;;;;;;12.98;1.58;;;0.80;99.90;;;;;;5038203;28;25141;-72
2023/03/28 05:21:40;;;;;;;7.53;1.80;;;0.80;99.90;;;;;;5055970;28;25119;-74
2023/03/28 05:24:08;;;;;;;12.25;2.20;;;0.80;99.90;;;;;;5055166;28;25063;-72
2023/03/28 05:26:35;;;;;;;13.45;2.28;;;0.80;99.90;;;;;;5060676;28;25106;-72
2023/03/28 05:29:03;;;;;;;21.35;2.30;;;0.90;99.90;;;;;;5059894;28;25044;-70
2023/03/28 05:31:31;;;;;;;15.73;2.10;;;0.90;99.90;;;;;;5041897;28;25137;-72
2023/03/28 05:33:58;;;;;;;9.15;1.55;;;0.90;99.90;;;;;;5059572;28;25137;-72
2023/03/28 05:36:25;;;;;;;8.35;1.08;;;0.90;99.90;;;;;;5059787;28;25112;-72
2023/03/28 05:38:53;;;;;;;10.88;1.40;;;1.00;99.90;;;;;;5060037;28;25094;-72
2023/03/28 05:41:20;;;;;;;11.80;2.88;;;1.00;99.90;;;;;;5059403;28;25116;-72
2023/03/28 05:43:48;;;;;;;6.38;1.30;;;1.10;99.90;;;;;;5038067;28;25084;-72
2023/03/28 05:46:15;;;;;;;9.20;1.27;;;1.10;99.90;;;;;;5037930;28;25067;-72
2023/03/28 05:48:43;;;;;;;8.60;2.03;;;1.20;99.90;;;;;;5038311;28;25054;-72
2023/03/28 05:51:10;;;;;;;8.95;1.20;;;1.20;99.90;;;;;;5038383;28;25087;-72
2023/03/28 05:53:37;;;;;;;12.48;1.95;;;1.30;99.90;;;;;;5039250;28;25093;-72
2023/03/28 05:56:06;;;;;;;8.55;1.58;;;1.30;99.90;;;;;;5039289;28;25101;-72
2023/03/28 05:58:34;;;;;;;9.45;1.55;;;1.40;99.90;;;;;;5038121;28;25106;-72
2023/03/28 06:01:03;;;;;;;11.50;1.42;;;1.40;99.90;;;;;;5039861;28;25096;-72
2023/03/28 06:03:30;;;;;;;10.80;1.33;;;1.40;99.90;;;;;;5039052;28;25108;-72
2023/03/28 06:05:58;;;;;;;10.70;1.70;;;1.40;99.90;;;;;;5037962;28;25151;-74
2023/03/28 06:08:26;;;;;;;6.35;1.75;;;1.50;99.90;;;;;;5037855;28;25102;-72
2023/03/28 06:11:00;;;;;;;12.23;1.98;;;1.50;99.90;;;;;;5039162;28;25099;-72
2023/03/28 06:13:28;;;;;;;10.45;2.33;;;1.60;99.90;;;;;;5039460;28;25066;-71
2023/03/28 06:15:55;;;;;;;12.77;1.38;;;1.60;99.90;;;;;;5038948;28;25138;-71
2023/03/28 06:18:22;;;;;;;12.43;1.58;;;1.60;99.90;;;;;;5038504;28;25145;-71
2023/03/28 06:20:50;;;;;;;9.48;1.58;;;1.60;99.90;;;;;;5038985;28;25075;-71
2023/03/28 06:23:18;;;;;;;14.45;1.77;;;1.70;99.90;;;;;;5038590;28;25057;-70
2023/03/28 06:25:45;;;;;;;21.23;2.80;;;1.70;99.90;;;;;;5038841;28;25076;-71
2023/03/28 06:28:13;;;;;;;6.05;1.88;;;1.70;99.90;;;;;;5038692;28;25122;-72
2023/03/28 06:30:40;;;;;;;6.28;1.17;;;1.70;99.90;;;;;;5039098;28;25183;-73
2023/03/28 06:33:07;;;;;;;10.55;2.20;;;1.70;99.90;;;;;;5037480;28;25125;-74
2023/03/28 06:35:43;;;;;;;11.13;1.70;;;1.70;99.90;;;;;;5037159;28;25077;-73
2023/03/28 06:38:10;;;;;;;8.10;1.55;;;1.70;99.90;;;;;;5037345;28;25059;-74
2023/03/28 06:40:37;;;;;;;7.15;1.45;;;1.70;99.90;;;;;;5038884;28;25141;-75
2023/03/28 06:43:04;;;;;;;14.30;2.47;;;1.70;99.90;;;;;;5037067;28;25113;-74
2023/03/28 06:45:32;;;;;;;8.10;1.30;;;1.70;99.90;;;;;;5038664;28;25072;-74
2023/03/28 06:47:59;;;;;;;12.90;1.40;;;1.70;99.90;;;;;;5037430;28;25059;-74
2023/03/28 06:50:26;;;;;;;11.68;1.73;;;1.80;99.90;;;;;;5037852;28;25055;-75
2023/03/28 06:52:53;;;;;;;12.85;3.10;;;1.90;99.90;;;;;;5037511;28;25102;-75
2023/03/28 06:55:21;;;;;;;4.00;1.20;;;1.90;99.90;;;;;;5037307;28;25110;-74
2023/03/28 06:57:50;;;;;;;16.20;2.45;;;2.00;99.90;;;;;;5036971;28;25044;-74
2023/03/28 07:00:17;;;;;;;12.90;1.40;;;2.00;99.90;;;;;;5038075;28;25095;-74
2023/03/28 07:02:45;;;;;;;7.13;1.60;;;2.10;99.90;;;;;;5037029;28;25076;-74
2023/03/28 07:05:13;;;;;;;11.63;1.52;;;2.20;99.90;;;;;;5036898;28;25049;-74
2023/03/28 07:07:40;;;;;;;19.67;3.15;;;2.20;99.90;;;;;;5037863;28;25069;-74
2023/03/28 07:10:08;;;;;;;14.95;2.08;;;2.30;99.90;;;;;;5038358;28;25063;-74
2023/03/28 07:12:36;;;;;;;7.53;1.80;;;2.30;99.90;;;;;;5038100;28;25073;-73
2023/03/28 07:15:07;;;;;;;7.68;2.05;;;2.30;99.90;;;;;;5037805;28;25150;-74
2023/03/28 07:17:35;;;;;;;6.25;0.82;;;2.30;99.90;;;;;;5037745;28;25079;-73
2023/03/28 07:20:03;;;;;;;7.43;1.30;;;2.40;99.90;;;;;;5036565;28;25062;-71
2023/03/28 07:22:31;;;;;;;11.65;1.75;;;2.40;99.90;;;;;;5037600;28;25150;-72
2023/03/28 07:24:58;;;;;;;10.07;1.63;;;2.50;99.90;;;;;;5037558;28;25071;-71
2023/03/28 07:27:25;;;;;;;9.05;1.23;;;2.50;99.90;;;;;;5037587;28;25057;-71
2023/03/28 07:29:53;;;;;;;11.65;2.20;;;2.50;99.90;;;;;;5037540;28;25108;-71
2023/03/28 07:32:21;;;;;;;14.23;2.17;;;2.50;99.90;;;;;;5037609;28;25060;-71
2023/03/28 07:34:49;;;;;;;8.95;1.73;;;2.50;99.90;;;;;;5037905;28;25047;-72
2023/03/28 07:37:17;;;;;;;7.57;1.40;;;2.60;99.90;;;;;;5037212;28;25078;-71
2023/03/28 07:39:44;;;;;;;11.43;2.65;;;2.60;99.90;;;;;;5037306;28;25122;-73
2023/03/28 07:42:12;;;;;;;13.80;2.10;;;2.60;99.90;;;;;;5037395;28;25059;-74
2023/03/28 07:44:40;;;;;;;10.82;1.92;;;2.60;99.90;;;;;;5053888;28;25069;-73
2023/03/28 07:47:08;;;;;;;10.88;1.63;;;2.60;99.90;;;;;;5056687;28;25104;-73
2023/03/28 07:49:35;;;;;;;9.30;1.75;;;2.70;99.90;;;;;;5039651;28;25105;-74
2023/03/28 07:52:05;;;;;;;12.05;2.30;;;2.80;99.90;;;;;;5057083;28;25068;-73
2023/03/28 07:54:33;;;;;;;8.85;2.83;;;2.90;99.90;;;;;;5039297;28;25134;-73
2023/03/28 07:57:00;;;;;;;12.52;2.30;;;2.90;99.90;;;;;;5056901;28;25072;-73
2023/03/28 07:59:28;;;;;;;6.88;1.38;;;3.00;99.90;;;;;;5056832;28;25060;-73
2023/03/28 08:01:55;;;;;;;11.73;2.10;;;3.00;99.90;;;;;;5039204;28;25133;-74
2023/03/28 08:04:22;;;;;;;9.85;1.50;;;3.00;99.90;;;;;;5039036;28;25054;-73
2023/03/28 08:06:51;;;;;;;16.13;2.08;;;3.00;99.90;;;;;;5039007;28;25080;-73
2023/03/28 08:09:19;;;;;;;10.38;1.65;;;3.00;99.90;;;;;;5038965;28;25121;-74
2023/03/28 08:11:47;;;;;;;6.00;1.02;;;3.00;99.90;;;;;;5039039;28;25069;-74
2023/03/28 08:14:17;;;;;;;12.10;2.67;;;3.10;99.90;;;;;;5057207;28;25129;-74
2023/03/28 08:16:45;;;;;;;12.18;2.53;;;3.10;99.90;;;;;;5057189;28;25062;-74
2023/03/28 08:19:12;;;;;;;7.85;1.05;;;3.10;99.90;;;;;;5038815;28;25134;-74
2023/03/28 08:21:39;;;;;;;6.80;1.20;;;3.30;99.90;;;;;;5038652;28;25055;-74
2023/03/28 08:24:08;;;;;;;6.60;1.83;;;3.50;99.90;;;;;;5056810;28;25114;-74
2023/03/28 08:26:36;;;;;;;5.70;1.55;;;3.70;99.90;;;;;;5056935;28;25086;-74
2023/03/28 08:29:05;;;;;;;7.90;1.38;;;3.80;99.90;;;;;;5056401;28;25060;-73
2023/03/28 08:31:32;;;;;;;9.98;1.60;;;4.00;99.90;;;;;;5056973;28;25050;-73
2023/03/28 08:33:59;;;;;;;10.85;2.00;;;4.10;99.90;;;;;;5056355;28;25112;-73
2023/03/28 08:36:27;;;;;;;11.10;3.08;;;4.20;99.90;;;;;;5056486;28;25061;-74
2023/03/28 08:38:59;;;;;;;8.38;1.27;;;4.30;99.90;;;;;;5038647;28;25047;-74
2023/03/28 08:41:47;;;;;;;8.90;2.17;;;4.30;99.90;;;;;;5056251;28;25074;-74
2023/03/28 08:44:26;;;;;;;8.95;2.30;;;4.20;99.90;;;;;;5055985;28;25155;-73
2023/03/28 08:47:09;;;;;;;9.50;1.30;;;4.20;99.90;;;;;;5056880;28;25080;-74
2023/03/28 08:49:46;;;;;;;9.18;1.38;;;4.20;99.90;;;;;;5056201;28;25090;-74
2023/03/28 08:52:18;;;;;;;6.47;1.23;;;4.20;99.90;;;;;;5056146;28;25050;-74
2023/03/28 08:54:48;;;;;;;10.07;1.58;;;4.20;99.90;;;;;;5038428;28;25053;-74
2023/03/28 08:57:22;;;;;;;8.23;1.73;;;4.30;99.90;;;;;;5056534;28;25111;-73
2023/03/28 09:00:16;;;;;;;5.22;1.98;;;4.30;99.90;;;;;;5059630;28;25074;-76
2023/03/28 09:02:43;;;;;;;9.50;1.40;;;4.40;99.90;;;;;;5051403;28;25064;-74
2023/03/28 09:05:29;;;;;;;9.48;2.13;;;4.50;99.90;;;;;;5060835;28;25090;-73
2023/03/28 09:08:09;;;;;;;7.47;1.77;;;4.60;99.90;;;;;;5059990;28;25072;-73
2023/03/28 09:10:59;;;;;;;8.65;1.45;;;4.80;99.90;;;;;;5060570;28;25100;-74
2023/03/28 09:13:45;;;;;;;5.78;1.45;;;5.00;99.90;;;;;;5042157;28;25069;-74
2023/03/28 09:16:40;;;;;;;4.55;1.10;;;5.30;99.90;;;;;;5060425;28;25060;-73
2023/03/28 09:19:20;;;;;;;11.93;1.40;;;5.40;99.90;;;;;;5042399;28;25113;-74
2023/03/28 09:22:12;;;;;;;10.00;1.23;;;5.40;99.90;;;;;;5059963;28;25130;-73
2023/03/28 09:25:01;;;;;;;8.07;2.38;;;5.50;99.90;;;;;;5059837;28;25051;-73
2023/03/28 09:27:49;;;;;;;6.60;1.38;;;5.70;99.90;;;;;;5059777;28;25073;-74
2023/03/28 09:30:27;;;;;;;11.52;1.15;;;5.90;99.90;;;;;;5059626;28;25073;-74
2023/03/28 09:32:58;;;;;;;8.20;1.10;;;6.00;99.90;;;;;;5059869;28;25129;-74
2023/03/28 09:35:27;;;;;;;5.18;1.13;;;6.10;99.90;;;;;;5059669;28;25071;-74
2023/03/28 09:38:03;;;;;;;7.28;1.10;;;6.10;99.90;;;;;;5059498;28;25154;-73
2023/03/28 09:40:33;;;;;;;7.87;1.00;;;6.20;99.90;;;;;;5059749;28;25116;-74
2023/03/28 09:43:29;;;;;;;5.50;1.63;;;6.30;99.90;;;;;;5041217;28;25174;-74
2023/03/28 09:46:07;;;;;;;9.77;1.90;;;6.30;99.90;;;;;;5059401;28;25135;-73
2023/03/28 09:48:36;;;;;;;8.90;1.65;;;6.40;99.90;;;;;;5059695;28;25065;-74
2023/03/28 09:51:06;;;;;;;6.93;1.23;;;6.60;99.90;;;;;;5041687;28;25070;-73
2023/03/28 09:53:37;;;;;;;12.68;1.55;;;6.80;99.90;;;;;;5059232;28;25105;-74
2023/03/28 09:56:21;;;;;;;3.35;1.30;;;6.90;99.90;;;;;;5041522;28;25107;-74
2023/03/28 09:58:59;;;;;;;3.08;1.02;;;6.80;99.90;;;;;;5059165;28;25097;-73
2023/03/28 10:01:49;;;;;;;10.75;1.02;;;6.60;99.90;;;;;;5060082;28;25063;-73
2023/03/28 10:04:31;;;;;;;9.45;1.40;;;6.30;99.90;;;;;;5059099;28;25117;-73
2023/03/28 10:07:11;;;;;;;8.55;0.80;;;6.20;99.90;;;;;;5058989;28;25103;-74
2023/03/28 10:09:50;;;;;;;5.97;1.00;;;6.40;99.90;;;;;;5058921;28;25068;-74
2023/03/28 10:12:46;;;;;;;2.25;1.00;;;6.50;99.90;;;;;;5059388;28;25048;-74
2023/03/28 10:15:33;;;;;;;9.13;1.10;;;6.70;99.90;;;;;;5041172;28;25083;-74
2023/03/28 10:18:03;;;;;;;4.13;1.00;;;6.80;99.90;;;;;;5059486;28;25052;-74
2023/03/28 10:20:36;;;;;;;9.02;1.05;;;6.80;99.90;;;;;;5041257;28;25061;-74
2023/03/28 10:23:05;;;;;;;10.55;1.15;;;6.70;99.90;;;;;;5040931;28;25072;-74
2023/03/28 10:25:43;;;;;;;5.78;0.98;;;6.80;99.90;;;;;;5058681;28;25067;-74
2023/03/28 10:28:21;;;;;;;10.40;1.45;;;7.00;99.90;;;;;;5058915;28;25051;-74
2023/03/28 10:30:57;;;;;;;8.43;2.17;;;7.20;99.90;;;;;;5059265;28;25107;-74
2023/03/28 10:33:33;;;;;;;5.97;0.88;;;7.40;99.90;;;;;;5058825;28;25069;-74
2023/03/28 10:36:10;;;;;;;7.18;1.27;;;7.40;99.90;;;;;;5058476;28;25063;-74
2023/03/28 10:38:47;;;;;;;8.25;1.45;;;7.50;99.90;;;;;;5040631;28;25062;-74
2023/03/28 10:41:28;;;;;;;11.35;1.38;;;7.40;99.90;;;;;;5058977;28;25038;-74
2023/03/28 10:43:56;;;;;;;6.72;1.13;;;7.30;99.90;;;;;;5058351;28;25130;-74
2023/03/28 10:46:35;;;;;;;5.82;1.00;;;7.10;99.90;;;;;;5058262;28;25094;-74
2023/03/28 10:49:06;;;;;;;5.95;1.35;;;6.90;99.90;;;;;;5040537;28;25073;-74
2023/03/28 10:51:39;;;;;;;5.28;1.02;;;6.60;99.90;;;;;;5058145;28;25243;-74
2023/03/28 10:54:35;;;;;;;8.70;1.20;;;6.50;99.90;;;;;;5058700;28;25055;-74
2023/03/28 10:57:24;;;;;;;7.63;1.55;;;6.50;99.90;;;;;;5058537;28;25096;-75
2023/03/28 11:00:17;;;;;;;8.10;1.42;;;6.50;99.90;;;;;;5058004;28;25071;-74
2023/03/28 11:03:14;;;;;;;5.22;1.25;;;6.40;99.90;;;;;;5058193;28;25127;-74
2023/03/28 11:06:06;;;;;;;5.55;1.33;;;6.60;99.90;;;;;;5058395;28;25059;-74
2023/03/28 11:09:07;;;;;;;12.48;1.80;;;6.80;99.90;;;;;;5057815;28;25097;-74
2023/03/28 11:12:01;;;;;;;2.38;0.65;;;7.10;99.90;;;;;;5058133;28;25061;-75
2023/03/28 11:14:55;;;;;;;6.32;1.02;;;7.40;97.20;;;;;;5040520;28;25062;-74
2023/03/28 11:17:47;;;;;;;7.40;1.33;;;7.60;97.20;;;;;;5057839;28;25060;-74
2023/03/28 11:20:56;;;;;;;5.32;0.88;;;7.80;96.80;;;;;;5057931;28;25100;-74
2023/03/28 11:23:27;;;;;;;5.63;0.90;;;7.80;94.20;;;;;;5046650;28;25137;-74
2023/03/28 11:26:11;;;;;;;3.30;0.68;;;7.80;95.00;;;;;;5057975;28;25073;-74
2023/03/28 11:29:03;;;;;;;9.55;1.83;;;7.70;95.50;;;;;;5057356;28;25072;-75
2023/03/28 11:31:50;;;;;;;2.70;0.93;;;7.80;96.60;;;;;;5057630;28;25070;-75
2023/03/28 11:35:10;;;;;;;4.75;1.35;;;7.80;95.70;;;;;;5057326;28;25072;-76
2023/03/28 11:37:59;;;;;;;6.95;1.17;;;8.00;96.10;;;;;;5013544;28;25130;-75
2023/03/28 11:40:47;;;;;;;5.00;1.05;;;8.20;95.30;;;;;;5039600;28;25080;-76
2023/03/28 11:43:28;;;;;;;4.50;1.30;;;8.40;94.00;;;;;;5039090;28;25004;-75
2023/03/28 11:46:04;;;;;;;7.18;1.40;;;8.60;91.70;;;;;;5057292;28;25067;-74
2023/03/28 11:48:40;;;;;;;;;;;8.70;94.20;;;;;;5039812;28;25070;-77
2023/03/28 11:51:19;;;;;;;6.10;1.40;;;8.70;93.40;;;;;;5039678;28;25055;-75
2023/03/28 11:54:07;;;;;;;7.07;1.33;;;8.60;93.20;;;;;;5056939;28;25079;-75
2023/03/28 11:56:59;;;;;;;9.38;1.20;;;8.60;93.10;;;;;;5057639;28;25082;-75
2023/03/28 11:59:46;;;;;;;6.60;1.60;;;8.40;92.90;;;;;;5056872;28;25108;-77
2023/03/28 12:02:19;;;;;;;2.70;0.93;;;8.40;92.90;;;;;;5056794;28;25100;-75
2023/03/28 12:04:59;;;;;;;5.18;0.93;;;8.30;91.80;;;;;;5057075;28;25069;-75
2023/03/28 12:07:51;;;;;;;5.30;1.00;;;8.30;90.80;;;;;;5056869;28;25085;-74
2023/03/28 12:10:49;;;;;;;4.43;1.75;;;8.40;93.10;;;;;;5056689;28;25074;-74
2023/03/28 12:13:40;;;;;;;6.72;1.17;;;8.50;88.20;;;;;;5056332;28;25069;-74
2023/03/28 12:16:14;;;;;;;5.75;1.40;;;8.60;89.60;;;;;;5057072;28;25144;-73
2023/03/28 12:19:00;;;;;;;5.20;1.10;;;8.60;92.10;;;;;;5056839;28;25078;-75
2023/03/28 12:21:37;;;;;;;3.42;1.42;;;8.50;93.40;;;;;;5056560;28;25082;-75
2023/03/28 12:24:23;;;;;;;5.03;1.30;;;8.40;94.00;;;;;;5038744;28;25054;-75
2023/03/28 12:27:18;;;;;;;7.00;1.60;;;8.20;94.70;;;;;;5038804;28;25085;-74
2023/03/28 12:30:19;;;;;;;6.63;1.50;;;8.10;95.00;;;;;;5038700;28;25054;-74
2023/03/28 12:33:06;;;;;;;8.32;1.60;;;8.00;94.40;;;;;;5056150;28;25133;-74
2023/03/28 12:35:42;;;;;;;5.57;1.42;;;8.00;93.70;;;;;;5056795;28;25092;-74
2023/03/28 12:38:30;;;;;;;5.43;1.35;;;8.10;94.40;;;;;;5056224;28;25131;-74
2023/03/28 12:41:04;;;;;;;5.90;1.67;;;8.40;93.90;;;;;;5056240;28;25113;-74
2023/03/28 12:43:44;;;;;;;8.45;2.03;;;8.60;94.10;;;;;;5055989;28;25132;-74
2023/03/28 12:46:15;;;;;;;7.32;1.60;;;8.90;92.40;;;;;;5056378;28;25101;-74
2023/03/28 12:49:05;;;;;;;5.78;1.27;;;8.90;92.90;;;;;;5056453;28;25069;-74
2023/03/28 12:51:39;;;;;;;3.78;1.42;;;9.10;93.70;;;;;;5056366;28;25058;-74
2023/03/28 12:54:26;;;;;;;5.20;1.30;;;9.20;93.80;;;;;;5038467;28;25122;-76
2023/03/28 12:57:09;;;;;;;8.35;1.55;;;9.20;93.80;;;;;;5038635;28;25064;-74
2023/03/28 12:59:42;;;;;;;4.85;1.40;;;9.20;91.50;;;;;;5056358;28;25070;-74
2023/03/28 13:02:16;;;;;;;6.35;1.60;;;9.20;91.30;;;;;;5056222;28;25121;-74
2023/03/28 13:04:58;;;;;;;4.63;1.75;;;9.20;91.20;;;;;;5056599;28;25078;-74
2023/03/28 13:07:55;;;;;;;4.35;1.05;;;9.20;89.80;;;;;;5056306;28;25074;-74
2023/03/28 13:10:52;;;;;;;4.05;1.17;;;9.20;91.00;;;;;;5056322;28;25078;-73
2023/03/28 13:13:43;;;;;;;4.60;1.30;;;9.10;88.90;;;;;;5056266;28;25135;-73
2023/03/28 13:16:55;;;;;;;5.80;1.08;;;9.00;91.00;;;;;;5056657;28;25112;-75
2023/03/28 13:19:50;;;;;;;5.65;1.60;;;9.10;92.00;;;;;;5023165;28;25082;-75
2023/03/28 13:22:43;;;;;;;5.72;1.20;;;9.20;90.70;;;;;;5055982;28;25095;-75
2023/03/28 13:25:22;;;;;;;6.28;1.20;;;9.20;90.10;;;;;;5056044;28;25124;-75
2023/03/28 13:27:51;;;;;;;2.70;1.13;;;9.20;90.70;;;;;;5055827;28;25077;-75
2023/03/28 13:30:36;;;;;;;9.68;1.50;;;9.40;89.50;;;;;;5056251;28;25051;-77
2023/03/28 13:33:26;;;;;;;7.15;1.15;;;9.60;88.50;;;;;;5055808;28;25123;-75
2023/03/28 13:35:59;;;;;;;7.90;1.23;;;9.80;89.10;;;;;;5056076;28;25059;-76